createdAt,value
2023-03-17T00:00:42.861Z,35.67
2023-03-17T00:03:24.736Z,47.03
2023-03-17T00:05:53.446Z,57.03
2023-03-17T00:08:23.541Z,44.42
2023-03-17T00:10:51.712Z,34.50
2023-03-17T00:13:19.592Z,23.65
2023-03-17T00:15:52.440Z,19.25
2023-03-17T00:18:20.003Z,18.13
2023-03-17T00:20:48.520Z,27.25
2023-03-17T00:23:20.687Z,33.35
2023-03-17T00:25:48.597Z,44.85
2023-03-17T00:28:21.085Z,40.28
2023-03-17T00:30:56.072Z,32.67
2023-03-17T00:33:34.676Z,34.40
2023-03-17T00:36:02.051Z,35.60
2023-03-17T00:38:29.757Z,49.70
2023-03-17T00:40:57.086Z,39.85
2023-03-17T00:43:24.162Z,47.17
2023-03-17T00:45:51.466Z,55.08
2023-03-17T00:48:20.800Z,48.10
2023-03-17T00:50:50.625Z,44.45
2023-03-17T00:53:20.683Z,37.80
2023-03-17T00:58:27.117Z,42.88
2023-03-17T01:00:55.296Z,47.50
2023-03-17T01:03:23.125Z,40.25
2023-03-17T01:05:50.557Z,35.40
2023-03-17T01:08:17.939Z,33.53
2023-03-17T01:10:45.754Z,35.28
2023-03-17T01:13:14.621Z,28.80
2023-03-17T01:15:47.694Z,29.45
2023-03-17T01:18:17.347Z,20.98
2023-03-17T01:20:44.992Z,24.73
2023-03-17T01:23:12.348Z,17.60
2023-03-17T01:25:42.742Z,23.88
2023-03-17T01:28:18.627Z,21.90
2023-03-17T01:30:46.290Z,22.23
2023-03-17T01:33:14.626Z,15.48
2023-03-17T01:35:46.249Z,20.70
2023-03-17T01:38:13.641Z,12.73
2023-03-17T01:40:46.866Z,13.40
2023-03-17T01:43:14.241Z,15.18
2023-03-17T01:46:18.627Z,15.85
2023-03-17T01:49:07.093Z,11.43
2023-03-17T01:51:43.254Z,24.58
2023-03-17T01:54:17.106Z,33.42
2023-03-17T01:56:49.059Z,25.83
2023-03-17T01:59:22.605Z,24.05
2023-03-17T02:01:52.590Z,27.38
2023-03-17T02:04:20.805Z,27.05
2023-03-17T02:06:57.822Z,32.45
2023-03-17T02:09:26.414Z,30.15
2023-03-17T02:11:54.585Z,32.17
2023-03-17T02:14:22.003Z,31.92
2023-03-17T02:16:49.518Z,41.60
2023-03-17T02:19:16.508Z,27.42
2023-03-17T02:21:53.977Z,22.75
2023-03-17T02:24:28.023Z,21.77
2023-03-17T02:26:58.407Z,25.15
2023-03-17T02:29:25.692Z,27.00
2023-03-17T02:31:53.473Z,26.55
2023-03-17T02:34:21.191Z,17.63
2023-03-17T02:36:48.582Z,13.60
2023-03-17T02:39:16.442Z,13.85
2023-03-17T02:41:43.809Z,24.05
2023-03-17T02:44:11.501Z,12.85
2023-03-17T02:46:38.874Z,12.82
2023-03-17T02:49:06.568Z,14.43
2023-03-17T02:51:33.533Z,11.20
2023-03-17T02:54:01.092Z,14.13
2023-03-17T02:56:28.432Z,14.45
2023-03-17T02:58:55.827Z,13.77
2023-03-17T03:01:23.169Z,8.52
2023-03-17T03:03:50.420Z,11.60
2023-03-17T03:06:17.649Z,10.20
2023-03-17T03:08:45.043Z,13.05
2023-03-17T03:11:12.235Z,11.73
2023-03-17T03:13:40.054Z,13.13
2023-03-17T03:16:07.428Z,17.33
2023-03-17T03:18:34.727Z,19.75
2023-03-17T03:21:01.959Z,30.58
2023-03-17T03:23:28.866Z,14.82
2023-03-17T03:25:56.533Z,14.77
2023-03-17T03:28:23.820Z,20.83
2023-03-17T03:30:51.041Z,18.08
2023-03-17T03:33:18.788Z,20.75
2023-03-17T03:35:46.102Z,25.30
2023-03-17T03:38:13.425Z,18.95
2023-03-17T03:40:40.438Z,18.95
2023-03-17T03:43:22.018Z,15.15
2023-03-17T03:45:50.803Z,16.67
2023-03-17T03:48:17.961Z,13.90
2023-03-17T03:50:45.419Z,12.10
2023-03-17T03:53:12.689Z,10.20
2023-03-17T03:55:40.038Z,15.02
2023-03-17T03:58:07.061Z,8.25
2023-03-17T04:00:34.596Z,13.82
2023-03-17T04:03:02.098Z,12.60
2023-03-17T04:05:29.673Z,15.43
2023-03-17T04:07:56.664Z,15.15
2023-03-17T04:10:23.994Z,11.85
2023-03-17T04:12:51.916Z,16.35
2023-03-17T04:15:20.566Z,13.45
2023-03-17T04:17:48.153Z,19.05
2023-03-17T04:20:16.075Z,18.80
2023-03-17T04:22:43.742Z,28.10
2023-03-17T04:25:13.610Z,16.33
2023-03-17T04:27:41.232Z,23.55
2023-03-17T04:30:09.047Z,12.43
2023-03-17T04:32:36.447Z,16.42
2023-03-17T04:35:03.812Z,13.95
2023-03-17T04:37:32.860Z,15.35
2023-03-17T04:40:02.381Z,13.80
2023-03-17T04:42:29.402Z,9.30
2023-03-17T04:44:56.708Z,11.15
2023-03-17T04:47:23.955Z,18.23
2023-03-17T04:49:51.423Z,21.00
2023-03-17T04:52:18.489Z,20.38
2023-03-17T04:54:45.860Z,20.80
2023-03-17T04:57:13.125Z,28.85
2023-03-17T04:59:40.225Z,19.50
2023-03-17T05:02:07.804Z,22.58
2023-03-17T05:04:35.154Z,28.38
2023-03-17T05:07:03.482Z,42.65
2023-03-17T05:09:30.781Z,39.80
2023-03-17T05:11:58.677Z,40.08
2023-03-17T05:14:26.006Z,35.75
2023-03-17T05:16:53.333Z,41.08
2023-03-17T05:19:20.441Z,39.40
2023-03-17T05:21:48.255Z,40.35
2023-03-17T05:24:15.778Z,42.60
2023-03-17T05:26:43.030Z,49.10
2023-03-17T05:29:10.715Z,47.97
2023-03-17T05:31:38.592Z,43.17
2023-03-17T05:34:05.719Z,45.97
2023-03-17T05:36:33.711Z,55.50
2023-03-17T05:39:01.093Z,66.25
2023-03-17T05:41:28.723Z,75.53
2023-03-17T05:43:56.294Z,117.80
2023-03-17T05:46:23.329Z,106.40
2023-03-17T05:48:50.365Z,115.20
2023-03-17T05:51:17.673Z,92.32
2023-03-17T05:53:45.996Z,95.60
2023-03-17T05:56:13.414Z,67.95
2023-03-17T05:58:40.748Z,37.97
2023-03-17T06:01:08.103Z,30.10
2023-03-17T06:03:38.355Z,33.75
2023-03-17T06:06:06.238Z,46.17
2023-03-17T06:08:33.242Z,89.13
2023-03-17T06:11:01.846Z,40.45
2023-03-17T06:13:29.291Z,25.50
2023-03-17T06:15:57.668Z,29.80
2023-03-17T06:18:25.024Z,22.63
2023-03-17T06:20:52.322Z,32.10
2023-03-17T06:23:19.754Z,14.88
2023-03-17T06:25:47.649Z,31.27
2023-03-17T06:28:15.098Z,27.38
2023-03-17T06:30:42.105Z,45.92
2023-03-17T06:33:10.238Z,33.53
2023-03-17T06:35:37.458Z,19.98
2023-03-17T06:38:08.300Z,26.05
2023-03-17T06:40:35.675Z,35.08
2023-03-17T06:43:03.253Z,37.67
2023-03-17T06:45:30.918Z,36.78
2023-03-17T06:47:58.816Z,33.85
2023-03-17T06:50:26.453Z,28.33
2023-03-17T06:52:53.874Z,35.83
2023-03-17T06:55:21.625Z,18.63
2023-03-17T06:57:51.198Z,37.97
2023-03-17T07:00:23.056Z,36.08
2023-03-17T07:02:51.329Z,38.90
2023-03-17T07:05:18.935Z,38.83
2023-03-17T07:07:46.546Z,22.77
2023-03-17T07:10:15.941Z,38.90
2023-03-17T07:12:44.836Z,25.40
2023-03-17T07:15:12.671Z,25.60
2023-03-17T07:17:40.469Z,31.75
2023-03-17T07:20:08.387Z,40.05
2023-03-17T07:22:35.974Z,25.80
2023-03-17T07:25:03.792Z,47.35
2023-03-17T07:27:31.481Z,30.08
2023-03-17T07:30:02.372Z,23.98
2023-03-17T07:32:30.173Z,47.40
2023-03-17T07:34:58.338Z,29.50
2023-03-17T07:37:26.053Z,45.42
2023-03-17T07:39:53.806Z,30.35
2023-03-17T07:42:21.845Z,36.80
2023-03-17T07:44:49.637Z,21.45
2023-03-17T07:47:17.678Z,37.58
2023-03-17T07:49:45.765Z,41.50
2023-03-17T07:52:13.574Z,30.40
2023-03-17T07:54:43.084Z,25.10
2023-03-17T07:57:11.844Z,41.28
2023-03-17T07:59:40.123Z,33.90
2023-03-17T08:02:08.606Z,23.88
2023-03-17T08:04:36.567Z,31.48
2023-03-17T08:07:06.471Z,22.30
2023-03-17T08:09:34.332Z,40.00
2023-03-17T08:12:03.570Z,23.38
2023-03-17T08:14:31.350Z,32.40
2023-03-17T08:16:59.330Z,32.15
2023-03-17T08:19:27.282Z,24.85
2023-03-17T08:21:55.164Z,26.60
2023-03-17T08:24:22.948Z,35.00
2023-03-17T08:26:50.707Z,34.58
2023-03-17T08:29:19.031Z,35.08
2023-03-17T08:31:46.946Z,35.63
2023-03-17T08:34:16.309Z,31.77
2023-03-17T08:36:44.132Z,32.17
2023-03-17T08:39:11.894Z,43.00
2023-03-17T08:41:41.495Z,18.98
2023-03-17T08:44:09.303Z,17.92
2023-03-17T08:46:37.099Z,32.42
2023-03-17T08:49:04.787Z,26.40
2023-03-17T08:51:34.824Z,27.83
2023-03-17T08:54:03.199Z,27.33
2023-03-17T08:56:31.065Z,29.20
2023-03-17T08:58:59.417Z,43.17
2023-03-17T09:01:27.637Z,39.05
2023-03-17T09:03:56.028Z,30.67
2023-03-17T09:06:24.328Z,29.75
2023-03-17T09:08:55.564Z,35.28
2023-03-17T09:11:32.026Z,44.60
2023-03-17T09:14:00.277Z,37.13
2023-03-17T09:16:28.803Z,26.70
2023-03-17T09:18:56.653Z,34.70
2023-03-17T09:21:24.579Z,50.88
2023-03-17T09:23:52.556Z,31.98
2023-03-17T09:26:20.582Z,36.28
2023-03-17T09:28:49.585Z,38.65
2023-03-17T09:31:17.489Z,33.22
2023-03-17T09:33:45.618Z,36.70
2023-03-17T09:36:13.847Z,27.20
2023-03-17T09:38:41.573Z,25.25
2023-03-17T09:41:21.116Z,29.42
2023-03-17T09:43:53.148Z,27.40
2023-03-17T09:46:23.966Z,18.75
2023-03-17T09:48:51.540Z,25.30
2023-03-17T09:51:20.285Z,27.20
2023-03-17T09:53:59.993Z,33.40
2023-03-17T09:56:29.406Z,20.15
2023-03-17T09:59:04.220Z,41.40
2023-03-17T10:01:32.363Z,28.42
2023-03-17T10:04:00.132Z,41.08
2023-03-17T10:06:47.544Z,28.00
2023-03-17T10:09:30.534Z,21.02
2023-03-17T10:12:11.122Z,18.05
2023-03-17T10:14:39.320Z,34.28
2023-03-17T10:17:07.064Z,33.08
2023-03-17T10:19:46.643Z,29.90
2023-03-17T10:22:49.076Z,35.10
2023-03-17T10:25:18.435Z,14.30
2023-03-17T10:28:08.840Z,28.48
2023-03-17T10:30:36.826Z,25.80
2023-03-17T10:33:08.611Z,22.08
2023-03-17T10:35:39.562Z,23.25
2023-03-17T10:38:34.344Z,32.10
2023-03-17T10:41:13.895Z,27.80
2023-03-17T10:43:53.763Z,19.98
2023-03-17T10:46:24.469Z,21.13
2023-03-17T10:49:16.879Z,20.15
2023-03-17T10:51:46.988Z,25.83
2023-03-17T10:54:18.895Z,24.60
2023-03-17T10:56:48.646Z,24.13
2023-03-17T10:59:26.530Z,21.27
2023-03-17T11:01:59.280Z,20.75
2023-03-17T11:04:44.142Z,29.73
2023-03-17T11:07:17.954Z,27.02
2023-03-17T11:09:50.942Z,25.15
2023-03-17T11:12:27.301Z,20.95
2023-03-17T11:15:07.135Z,24.98
2023-03-17T11:17:53.387Z,20.83
2023-03-17T11:21:05.224Z,28.95
2023-03-17T11:23:46.451Z,72.30
2023-03-17T11:26:46.872Z,75.82
2023-03-17T11:29:42.492Z,75.93
2023-03-17T11:32:13.087Z,64.78
2023-03-17T11:35:09.752Z,58.28
2023-03-17T11:37:37.396Z,25.40
2023-03-17T11:40:47.006Z,27.58
2023-03-17T11:43:20.762Z,17.15
2023-03-17T11:45:53.519Z,29.25
2023-03-17T11:49:01.028Z,32.63
2023-03-17T11:51:37.647Z,36.10
2023-03-17T11:54:20.368Z,31.92
2023-03-17T11:56:54.345Z,36.30
2023-03-17T11:59:27.192Z,42.90
2023-03-17T12:02:17.436Z,20.10
2023-03-17T12:05:10.000Z,26.95
2023-03-17T12:07:49.902Z,22.90
2023-03-17T12:10:17.601Z,25.60
2023-03-17T12:12:54.199Z,29.92
2023-03-17T12:15:43.900Z,30.85
2023-03-17T12:18:12.289Z,26.38
2023-03-17T12:20:43.037Z,25.85
2023-03-17T12:23:30.208Z,21.63
2023-03-17T12:26:01.536Z,26.42
2023-03-17T12:28:39.067Z,38.00
2023-03-17T12:31:33.824Z,23.40
2023-03-17T12:34:05.341Z,25.85
2023-03-17T12:36:35.904Z,31.98
2023-03-17T12:39:19.695Z,37.58
2023-03-17T12:42:19.806Z,25.70
2023-03-17T12:45:17.049Z,26.65
2023-03-17T12:48:15.038Z,30.65
2023-03-17T12:51:23.310Z,28.65
2023-03-17T12:53:51.865Z,26.23
2023-03-17T12:56:24.425Z,23.33
2023-03-17T12:58:53.345Z,26.55
2023-03-17T13:01:26.705Z,19.50
2023-03-17T13:04:03.496Z,18.90
2023-03-17T13:06:59.216Z,22.20
2023-03-17T13:09:32.441Z,31.15
2023-03-17T13:12:01.349Z,39.38
2023-03-17T13:14:47.016Z,38.25
2023-03-17T13:17:17.083Z,26.80
2023-03-17T13:20:18.381Z,26.90
2023-03-17T13:23:15.164Z,29.75
2023-03-17T13:25:43.031Z,26.58
2023-03-17T13:28:13.317Z,32.55
2023-03-17T13:30:40.524Z,28.52
2023-03-17T13:33:11.195Z,18.88
2023-03-17T13:35:54.163Z,34.85
2023-03-17T13:38:37.572Z,20.92
2023-03-17T13:41:08.075Z,29.38
2023-03-17T13:43:56.911Z,29.25
2023-03-17T13:46:48.429Z,30.90
2023-03-17T13:49:29.319Z,30.38
2023-03-17T13:52:11.646Z,26.40
2023-03-17T13:54:49.084Z,25.80
2023-03-17T13:57:26.619Z,22.55
2023-03-17T14:00:33.113Z,22.42
2023-03-17T14:03:17.542Z,36.17
2023-03-17T14:05:49.234Z,22.20
2023-03-17T14:08:32.779Z,25.85
2023-03-17T14:11:03.181Z,20.75
2023-03-17T14:13:45.071Z,20.73
2023-03-17T14:16:30.063Z,17.55
2023-03-17T14:19:30.007Z,18.88
2023-03-17T14:22:18.271Z,25.15
2023-03-17T14:24:45.491Z,19.67
2023-03-17T14:27:15.154Z,21.27
2023-03-17T14:32:18.801Z,16.98
2023-03-17T14:34:53.085Z,16.15
2023-03-17T14:37:21.965Z,16.95
2023-03-17T14:39:52.336Z,27.67
2023-03-17T14:42:26.955Z,20.67
2023-03-17T14:45:01.856Z,21.95
2023-03-17T14:47:37.526Z,16.27
2023-03-17T14:50:14.437Z,24.63
2023-03-17T14:52:42.053Z,14.05
2023-03-17T14:55:15.558Z,17.13
2023-03-17T14:57:43.373Z,20.38
2023-03-17T15:00:38.214Z,28.23
2023-03-17T15:03:19.244Z,22.20
2023-03-17T15:05:46.796Z,20.60
2023-03-17T15:08:34.577Z,41.45
2023-03-17T15:11:06.753Z,22.63
2023-03-17T15:13:37.353Z,20.60
2023-03-17T15:16:15.785Z,19.58
2023-03-17T15:18:43.340Z,30.55
2023-03-17T15:21:43.024Z,21.83
2023-03-17T15:24:33.427Z,23.80
2023-03-17T15:27:07.303Z,21.90
2023-03-17T15:29:34.901Z,33.15
2023-03-17T15:32:16.564Z,36.15
2023-03-17T15:34:44.181Z,27.00
2023-03-17T15:37:17.196Z,26.63
2023-03-17T15:39:44.866Z,32.00
2023-03-17T15:42:11.912Z,24.85
2023-03-17T15:44:39.152Z,37.60
2023-03-17T15:47:06.578Z,26.92
2023-03-17T15:49:35.064Z,28.45
2023-03-17T15:52:02.179Z,37.92
2023-03-17T15:54:29.560Z,21.65
2023-03-17T15:56:57.124Z,29.80
2023-03-17T15:59:24.097Z,21.95
2023-03-17T16:01:51.593Z,20.55
2023-03-17T16:04:19.133Z,22.52
2023-03-17T16:06:48.052Z,22.75
2023-03-17T16:09:17.973Z,18.80
2023-03-17T16:11:46.190Z,31.00
2023-03-17T16:14:14.153Z,29.10
2023-03-17T16:16:43.607Z,24.58
2023-03-17T16:19:21.756Z,26.33
2023-03-17T16:21:49.168Z,27.40
2023-03-17T16:24:18.868Z,17.17
2023-03-17T16:29:15.045Z,23.58
2023-03-17T16:31:42.767Z,49.47
2023-03-17T16:34:20.794Z,18.13
2023-03-17T16:36:48.696Z,15.80
2023-03-17T16:39:20.603Z,16.50
2023-03-17T16:41:48.400Z,15.73
2023-03-17T16:44:18.436Z,15.05
2023-03-17T16:46:46.173Z,25.30
2023-03-17T16:49:18.847Z,11.30
2023-03-17T16:51:46.263Z,16.85
2023-03-17T16:54:13.839Z,20.40
2023-03-17T16:56:41.933Z,13.82
2023-03-17T16:59:20.706Z,16.65
2023-03-17T17:01:48.227Z,20.13
2023-03-17T17:04:15.675Z,24.77
2023-03-17T17:06:42.995Z,18.60
2023-03-17T17:09:10.567Z,16.13
2023-03-17T17:11:37.989Z,20.45
2023-03-17T17:14:05.422Z,22.40
2023-03-17T17:16:36.104Z,26.48
2023-03-17T17:19:03.964Z,24.98
2023-03-17T17:21:32.002Z,15.25
2023-03-17T17:23:59.252Z,15.50
2023-03-17T17:26:27.012Z,18.58
2023-03-17T17:28:54.083Z,20.20
2023-03-17T17:31:21.191Z,18.77
2023-03-17T17:33:48.713Z,15.65
2023-03-17T17:36:17.161Z,18.23
2023-03-17T17:38:45.006Z,15.00
2023-03-17T17:41:13.072Z,19.70
2023-03-17T17:43:40.828Z,11.20
2023-03-17T17:46:26.145Z,26.63
2023-03-17T17:48:53.328Z,22.67
2023-03-17T17:51:20.732Z,19.00
2023-03-17T17:53:48.270Z,26.17
2023-03-17T17:56:16.589Z,21.02
2023-03-17T17:58:44.440Z,14.48
2023-03-17T18:01:14.225Z,23.60
2023-03-17T18:03:42.982Z,15.25
2023-03-17T18:06:10.389Z,19.23
2023-03-17T18:08:37.676Z,20.80
2023-03-17T18:11:05.652Z,26.35
2023-03-17T18:13:34.469Z,31.20
2023-03-17T18:16:02.028Z,16.80
2023-03-17T18:18:29.074Z,19.88
2023-03-17T18:20:56.391Z,16.75
2023-03-17T18:23:23.545Z,11.23
2023-03-17T18:25:50.859Z,14.68
2023-03-17T18:28:20.925Z,18.85
2023-03-17T18:30:48.283Z,16.42
2023-03-17T18:33:18.427Z,20.20
2023-03-17T18:35:48.712Z,16.13
2023-03-17T18:38:16.099Z,17.33
2023-03-17T18:40:43.816Z,20.33
2023-03-17T18:43:11.104Z,24.67
2023-03-17T18:45:38.734Z,21.08
2023-03-17T18:48:06.092Z,16.25
2023-03-17T18:50:33.792Z,23.75
2023-03-17T18:53:01.257Z,30.60
2023-03-17T18:55:28.461Z,24.35
2023-03-17T18:57:55.585Z,23.65
2023-03-17T19:00:25.290Z,24.20
2023-03-17T19:02:52.717Z,19.25
2023-03-17T19:05:20.422Z,26.95
2023-03-17T19:07:47.866Z,22.83
2023-03-17T19:10:15.427Z,23.35
2023-03-17T19:12:43.298Z,20.10
2023-03-17T19:15:12.605Z,24.85
2023-03-17T19:17:40.585Z,20.33
2023-03-17T19:20:08.794Z,24.33
2023-03-17T19:22:36.289Z,17.92
2023-03-17T19:25:04.400Z,14.07
2023-03-17T19:27:31.982Z,15.70
2023-03-17T19:29:59.410Z,16.38
2023-03-17T19:32:26.619Z,15.52
2023-03-17T19:34:54.088Z,17.75
2023-03-17T19:37:21.477Z,27.02
2023-03-17T19:39:48.893Z,18.73
2023-03-17T19:42:16.306Z,17.85
2023-03-17T19:44:43.793Z,18.73
2023-03-17T19:47:11.362Z,18.67
2023-03-17T19:49:38.754Z,18.67
2023-03-17T19:52:06.625Z,20.10
2023-03-17T19:54:34.275Z,20.95
2023-03-17T19:57:01.802Z,19.20
2023-03-17T19:59:29.248Z,25.83
2023-03-17T20:01:56.930Z,13.73
2023-03-17T20:04:24.435Z,19.42
2023-03-17T20:06:55.557Z,20.98
2023-03-17T20:09:25.469Z,15.48
2023-03-17T20:16:49.079Z,15.43
2023-03-17T20:19:16.834Z,34.53
2023-03-17T20:21:44.640Z,15.77
2023-03-17T20:24:14.913Z,13.90
2023-03-17T20:26:43.459Z,12.48
2023-03-17T20:29:14.268Z,11.10
2023-03-17T20:31:42.202Z,10.05
2023-03-17T20:34:10.192Z,9.57
2023-03-17T20:36:42.247Z,12.45
2023-03-17T20:39:13.252Z,11.32
2023-03-17T20:41:41.308Z,10.88
2023-03-17T20:44:08.649Z,15.60
2023-03-17T20:46:35.782Z,8.93
2023-03-17T20:49:04.154Z,11.15
2023-03-17T20:51:32.318Z,10.43
2023-03-17T20:54:00.814Z,13.80
2023-03-17T20:56:29.899Z,9.40
2023-03-17T20:58:58.538Z,7.63
2023-03-17T21:01:26.740Z,7.25
2023-03-17T21:03:53.812Z,10.15
2023-03-17T21:06:20.832Z,13.10
2023-03-17T21:08:48.554Z,11.85
2023-03-17T21:11:19.836Z,15.02
2023-03-17T21:13:47.734Z,11.60
2023-03-17T21:16:24.311Z,19.80
2023-03-17T21:18:51.715Z,12.85
2023-03-17T21:21:20.008Z,14.82
2023-03-17T21:23:47.589Z,18.17
2023-03-17T21:26:14.976Z,15.48
2023-03-17T21:28:42.688Z,11.02
2023-03-17T21:31:12.213Z,9.40
2023-03-17T21:33:39.597Z,8.18
2023-03-17T21:36:07.484Z,7.60
2023-03-17T21:38:34.920Z,9.88
2023-03-17T21:41:33.229Z,11.10
2023-03-17T21:44:01.475Z,7.00
2023-03-17T21:46:29.592Z,12.77
2023-03-17T21:48:57.136Z,8.35
2023-03-17T21:51:24.916Z,7.55
2023-03-17T21:53:53.065Z,7.13
2023-03-17T21:56:20.829Z,7.95
2023-03-17T21:58:49.070Z,8.18
2023-03-17T22:01:21.676Z,10.90
2023-03-17T22:03:49.690Z,6.95
2023-03-17T22:06:17.597Z,5.53
2023-03-17T22:08:45.759Z,12.75
2023-03-17T22:11:15.387Z,8.32
2023-03-17T22:13:43.639Z,7.82
2023-03-17T22:16:11.915Z,8.30
2023-03-17T22:18:39.016Z,7.90
2023-03-17T22:21:06.879Z,8.55
2023-03-17T22:23:39.688Z,8.80
2023-03-17T22:26:07.614Z,7.95
2023-03-17T22:28:35.153Z,9.30
2023-03-17T22:31:06.730Z,12.13
2023-03-17T22:33:34.253Z,7.05
2023-03-17T22:36:01.280Z,9.38
2023-03-17T22:38:28.420Z,6.93
2023-03-17T22:41:02.934Z,6.90
2023-03-17T22:43:30.496Z,7.80
2023-03-17T22:45:57.850Z,5.60
2023-03-17T22:48:24.958Z,8.35
2023-03-17T22:50:52.424Z,7.80
2023-03-17T22:53:19.573Z,18.13
2023-03-17T22:55:50.161Z,7.30
2023-03-17T22:58:17.503Z,4.95
2023-03-17T23:00:46.244Z,4.80
2023-03-17T23:03:13.556Z,7.00
2023-03-17T23:05:45.662Z,10.18
2023-03-17T23:08:12.973Z,8.63
2023-03-17T23:10:40.683Z,10.05
2023-03-17T23:13:08.979Z,5.00
2023-03-17T23:15:36.916Z,6.93
2023-03-17T23:18:04.618Z,10.23
2023-03-17T23:20:32.466Z,4.82
2023-03-17T23:22:59.961Z,10.02
2023-03-17T23:25:27.305Z,6.95
2023-03-17T23:27:54.790Z,8.20
2023-03-17T23:30:21.849Z,4.03
2023-03-17T23:32:49.373Z,11.43
2023-03-17T23:35:17.543Z,11.95
2023-03-17T23:37:44.986Z,5.97
2023-03-17T23:40:15.531Z,12.50
2023-03-17T23:42:43.088Z,5.28
2023-03-17T23:45:10.702Z,4.30
2023-03-17T23:47:38.598Z,10.05
2023-03-17T23:50:06.035Z,8.30
2023-03-17T23:52:33.346Z,7.78
2023-03-17T23:55:01.142Z,7.07
2023-03-17T23:57:28.481Z,8.55
2023-03-17T23:59:57.198Z,14.00
